createdAt,value
2017-12-23T00:00:40.452Z,103274.03
2017-12-23T00:01:46.154Z,103276.34
2017-12-23T00:02:50.656Z,103274.61
2017-12-23T00:03:56.089Z,103276.70
2017-12-23T00:05:01.829Z,103275.63
2017-12-23T00:06:06.271Z,103269.56
2017-12-23T00:07:10.713Z,103271.77
2017-12-23T00:08:15.516Z,103269.04
2017-12-23T00:09:20.149Z,103270.55
2017-12-23T00:10:24.993Z,103271.55
2017-12-23T00:11:29.544Z,103274.41
2017-12-23T00:12:33.976Z,103275.41
2017-12-23T00:13:38.558Z,103273.16
2017-12-23T00:14:43.187Z,103265.95
2017-12-23T00:15:48.282Z,103260.84
2017-12-23T00:16:53.792Z,103253.06
2017-12-23T00:17:58.247Z,103260.87
2017-12-23T00:19:02.764Z,103252.91
2017-12-23T00:20:07.201Z,103252.58
2017-12-23T00:21:11.796Z,103248.56
2017-12-23T00:22:16.544Z,103243.57
2017-12-23T00:23:21.044Z,103248.64
2017-12-23T00:24:25.716Z,103249.19
2017-12-23T00:25:30.229Z,103246.07
2017-12-23T00:26:34.808Z,103252.78
2017-12-23T00:27:40.299Z,103250.27
2017-12-23T00:28:44.985Z,103247.73
2017-12-23T00:29:49.495Z,103242.58
2017-12-23T00:30:54.454Z,103242.16
2017-12-23T00:31:59.148Z,103244.77
2017-12-23T00:33:03.885Z,103242.93
2017-12-23T00:34:08.431Z,103245.02
2017-12-23T00:35:13.211Z,103246.45
2017-12-23T00:36:17.710Z,103251.40
2017-12-23T00:37:22.208Z,103250.08
2017-12-23T00:38:27.605Z,103250.14
2017-12-23T00:39:32.096Z,103245.67
2017-12-23T00:40:36.585Z,103247.30
2017-12-23T00:41:41.922Z,103240.94
2017-12-23T00:42:46.563Z,103243.84
2017-12-23T00:43:51.000Z,103234.61
2017-12-23T00:44:56.494Z,103240.75
2017-12-23T00:46:01.070Z,103246.45
2017-12-23T00:47:05.610Z,103240.48
2017-12-23T00:48:14.120Z,103235.34
2017-12-23T00:49:18.658Z,103232.19
2017-12-23T00:50:23.270Z,103238.88
2017-12-23T00:51:27.876Z,103240.31
2017-12-23T00:52:32.484Z,103235.19
2017-12-23T00:53:36.912Z,103242.05
2017-12-23T00:54:41.478Z,103242.08
2017-12-23T00:55:46.035Z,103249.99
2017-12-23T00:56:50.626Z,103246.03
2017-12-23T00:57:56.417Z,103248.86
2017-12-23T00:59:01.746Z,103239.11
2017-12-23T01:00:08.332Z,103238.09
2017-12-23T01:01:13.018Z,103238.98
2017-12-23T01:02:17.459Z,103234.52
2017-12-23T01:03:21.948Z,103237.89
2017-12-23T01:04:26.514Z,103237.03
2017-12-23T01:05:31.255Z,103237.00
2017-12-23T01:06:35.852Z,103233.61
2017-12-23T01:07:40.371Z,103238.31
2017-12-23T01:08:45.180Z,103228.22
2017-12-23T01:09:49.651Z,103219.23
2017-12-23T01:10:54.231Z,103216.86
2017-12-23T01:11:59.955Z,103212.45
2017-12-23T01:13:04.584Z,103216.28
2017-12-23T01:14:11.911Z,103209.96
2017-12-23T01:15:16.641Z,103215.84
2017-12-23T01:17:35.090Z,103212.52
2017-12-23T01:18:39.503Z,103215.86
2017-12-23T01:19:44.068Z,103213.62
2017-12-23T01:20:48.548Z,103213.14
2017-12-23T01:21:53.668Z,103213.89
2017-12-23T01:23:00.063Z,103216.70
2017-12-23T01:24:04.908Z,103220.39
2017-12-23T01:25:09.339Z,103220.00
2017-12-23T01:26:13.918Z,103214.43
2017-12-23T01:27:18.520Z,103214.88
2017-12-23T01:28:23.009Z,103224.45
2017-12-23T01:29:27.801Z,103217.16
2017-12-23T01:30:32.532Z,103215.14
2017-12-23T01:31:37.286Z,103208.00
2017-12-23T01:32:41.849Z,103207.50
2017-12-23T01:33:46.671Z,103204.41
2017-12-23T01:34:51.813Z,103208.57
2017-12-23T01:35:56.619Z,103204.84
2017-12-23T01:37:01.120Z,103203.47
2017-12-23T01:38:05.705Z,103203.80
2017-12-23T01:39:10.177Z,103203.86
2017-12-23T01:40:14.692Z,103200.13
2017-12-23T01:41:19.524Z,103211.50
2017-12-23T01:42:24.617Z,103203.44
2017-12-23T01:43:29.113Z,103197.59
2017-12-23T01:44:33.514Z,103191.50
2017-12-23T01:45:38.824Z,103189.37
2017-12-23T01:46:43.263Z,103190.47
2017-12-23T01:47:48.382Z,103185.62
2017-12-23T01:48:52.884Z,103183.42
2017-12-23T01:49:58.341Z,103184.80
2017-12-23T01:51:02.841Z,103185.03
2017-12-23T01:52:07.285Z,103182.02
2017-12-23T01:53:11.833Z,103182.48
2017-12-23T01:54:16.691Z,103172.59
2017-12-23T01:55:21.171Z,103171.33
2017-12-23T01:56:25.684Z,103158.09
2017-12-23T01:57:32.197Z,103169.33
2017-12-23T01:58:36.781Z,103159.98
2017-12-23T02:00:43.701Z,103154.14
2017-12-23T02:01:48.548Z,103158.41
2017-12-23T02:02:53.473Z,103153.49
2017-12-23T02:03:58.082Z,103152.28
2017-12-23T02:05:02.568Z,103151.02
2017-12-23T02:06:07.101Z,103149.34
2017-12-23T02:07:11.808Z,103143.30
2017-12-23T02:08:18.584Z,103148.30
2017-12-23T02:09:23.179Z,103143.38
2017-12-23T02:10:28.190Z,103147.22
2017-12-23T02:11:32.725Z,103140.91
2017-12-23T02:12:38.264Z,103135.45
2017-12-23T02:13:43.048Z,103129.25
2017-12-23T02:14:47.604Z,103130.00
2017-12-23T02:15:53.349Z,103131.44
2017-12-23T02:16:59.063Z,103128.37
2017-12-23T02:18:03.476Z,103126.80
2017-12-23T02:19:07.998Z,103126.91
2017-12-23T02:20:12.520Z,103120.73
2017-12-23T02:21:17.077Z,103122.92
2017-12-23T02:22:21.572Z,103116.35
2017-12-23T02:23:26.132Z,103122.41
2017-12-23T02:24:30.711Z,103119.86
2017-12-23T02:25:35.373Z,103116.91
2017-12-23T02:26:39.873Z,103109.52
2017-12-23T02:27:44.383Z,103103.73
2017-12-23T02:28:48.904Z,103099.05
2017-12-23T02:29:54.620Z,103106.20
2017-12-23T02:30:59.478Z,103099.74
2017-12-23T02:32:03.997Z,103091.98
2017-12-23T02:33:08.395Z,103085.53
2017-12-23T02:34:12.792Z,103090.76
2017-12-23T02:35:17.175Z,103090.55
2017-12-23T02:36:21.995Z,103086.98
2017-12-23T02:37:26.442Z,103078.08
2017-12-23T02:38:30.925Z,103078.24
2017-12-23T02:39:35.454Z,103075.27
2017-12-23T02:40:39.939Z,103066.50
2017-12-23T02:41:44.585Z,103057.59
2017-12-23T02:42:50.421Z,103057.65
2017-12-23T02:43:54.908Z,103049.09
2017-12-23T02:44:59.908Z,103058.09
2017-12-23T02:46:04.765Z,103052.78
2017-12-23T02:47:09.586Z,103055.97
2017-12-23T02:49:28.269Z,103058.48
2017-12-23T02:50:32.676Z,103056.91
2017-12-23T02:51:37.231Z,103061.40
2017-12-23T02:52:41.684Z,103058.81
2017-12-23T02:53:46.091Z,103052.12
2017-12-23T02:54:50.873Z,103053.02
2017-12-23T02:55:55.305Z,103052.84
2017-12-23T02:57:00.123Z,103046.05
2017-12-23T02:58:04.564Z,103042.59
2017-12-23T02:59:09.022Z,103047.37
2017-12-23T03:00:18.841Z,103042.11
2017-12-23T03:01:23.740Z,103037.00
2017-12-23T03:02:28.261Z,103023.17
2017-12-23T03:03:33.018Z,103036.48
2017-12-23T03:04:38.036Z,103030.92
2017-12-23T03:05:42.467Z,103033.61
2017-12-23T03:06:46.932Z,103026.58
2017-12-23T03:07:51.624Z,103032.34
2017-12-23T03:08:56.136Z,103025.23
2017-12-23T03:10:01.192Z,103029.55
2017-12-23T03:11:05.588Z,103019.13
2017-12-23T03:12:10.152Z,103018.14
2017-12-23T03:13:14.531Z,103022.38
2017-12-23T03:14:20.177Z,103017.94
2017-12-23T03:15:24.899Z,103011.85
2017-12-23T03:16:30.269Z,103007.06
2017-12-23T03:17:34.912Z,102999.66
2017-12-23T03:18:39.423Z,102993.41
2017-12-23T03:19:43.948Z,102989.73
2017-12-23T03:20:48.378Z,102999.03
2017-12-23T03:21:52.936Z,102990.77
2017-12-23T03:22:57.493Z,102988.66
2017-12-23T03:24:01.987Z,103002.64
2017-12-23T03:25:06.574Z,102992.75
2017-12-23T03:26:11.054Z,102997.33
2017-12-23T03:27:15.797Z,102988.64
2017-12-23T03:28:20.328Z,102989.37
2017-12-23T03:29:24.817Z,102986.52
2017-12-23T03:30:29.337Z,102994.76
2017-12-23T03:31:33.776Z,102990.36
2017-12-23T03:32:38.409Z,102991.69
2017-12-23T03:33:43.256Z,102993.47
2017-12-23T03:34:47.660Z,102995.08
2017-12-23T03:35:52.141Z,102993.88
2017-12-23T03:36:56.560Z,102998.78
2017-12-23T03:38:01.061Z,103000.23
2017-12-23T03:39:09.016Z,102995.41
2017-12-23T03:40:13.412Z,102991.03
2017-12-23T03:41:17.969Z,102984.34
2017-12-23T03:42:22.723Z,102981.71
2017-12-23T03:43:27.701Z,102965.56
2017-12-23T03:44:32.255Z,102972.73
2017-12-23T03:45:37.182Z,102974.51
2017-12-23T03:46:42.524Z,102976.75
2017-12-23T03:47:47.030Z,102973.84
2017-12-23T03:48:51.509Z,102975.16
2017-12-23T03:49:56.008Z,102971.27
2017-12-23T03:51:00.519Z,102957.72
2017-12-23T03:52:05.340Z,102958.30
2017-12-23T03:53:09.833Z,102955.69
2017-12-23T03:54:20.480Z,102953.00
2017-12-23T03:55:25.603Z,102945.81
2017-12-23T03:56:38.574Z,102941.12
2017-12-23T03:57:43.792Z,102953.07
2017-12-23T03:58:48.221Z,102949.08
2017-12-23T03:59:52.844Z,102957.69
2017-12-23T04:00:57.452Z,102947.48
2017-12-23T04:02:01.920Z,102944.05
2017-12-23T04:03:06.472Z,102944.09
2017-12-23T04:04:11.240Z,102944.16
2017-12-23T04:05:15.829Z,102945.07
2017-12-23T04:06:20.280Z,102945.34
2017-12-23T04:07:24.852Z,102947.59
2017-12-23T04:08:29.367Z,102937.59
2017-12-23T04:09:33.779Z,102932.30
2017-12-23T04:10:39.170Z,102934.17
2017-12-23T04:11:43.632Z,102937.75
2017-12-23T04:12:48.063Z,102917.72
2017-12-23T04:13:52.537Z,102914.58
2017-12-23T04:14:57.059Z,102910.84
2017-12-23T04:16:02.294Z,102914.30
2017-12-23T04:17:06.815Z,102918.44
2017-12-23T04:18:11.989Z,102915.94
2017-12-23T04:19:16.495Z,102928.33
2017-12-23T04:20:21.061Z,102938.80
2017-12-23T04:21:26.427Z,102934.97
2017-12-23T04:22:31.142Z,102929.53
2017-12-23T04:23:35.591Z,102932.58
2017-12-23T04:24:40.716Z,102925.98
2017-12-23T04:25:45.257Z,102930.05
2017-12-23T04:26:49.651Z,102940.33
2017-12-23T04:27:54.100Z,102925.51
2017-12-23T04:28:58.836Z,102925.94
2017-12-23T04:30:04.892Z,102916.98
2017-12-23T04:31:09.650Z,102916.54
2017-12-23T04:32:22.553Z,102918.27
2017-12-23T04:33:26.968Z,102920.03
2017-12-23T04:34:31.344Z,102915.66
2017-12-23T04:35:36.215Z,102910.50
2017-12-23T04:36:41.618Z,102918.03
2017-12-23T04:37:46.028Z,102913.70
2017-12-23T04:38:50.464Z,102902.69
2017-12-23T04:39:54.929Z,102913.30
2017-12-23T04:40:59.544Z,102909.31
2017-12-23T04:42:03.989Z,102908.17
2017-12-23T04:43:08.521Z,102908.22
2017-12-23T04:44:12.981Z,102904.77
2017-12-23T04:45:17.484Z,102905.88
2017-12-23T04:46:22.366Z,102905.00
2017-12-23T04:47:26.775Z,102906.38
2017-12-23T04:48:31.354Z,102894.84
2017-12-23T04:49:35.814Z,102900.92
2017-12-23T04:50:40.476Z,102884.45
2017-12-23T04:51:45.704Z,102893.34
2017-12-23T04:52:50.502Z,102897.38
2017-12-23T04:53:55.063Z,102887.02
2017-12-23T04:54:59.641Z,102891.33
2017-12-23T04:56:04.261Z,102889.34
2017-12-23T04:57:08.648Z,102891.59
2017-12-23T04:58:13.364Z,102886.43
2017-12-23T04:59:17.959Z,102887.83
2017-12-23T05:00:22.669Z,102895.39
2017-12-23T05:01:28.120Z,102887.75
2017-12-23T05:02:32.823Z,102892.56
2017-12-23T05:03:37.233Z,102897.75
2017-12-23T05:04:42.327Z,102891.59
2017-12-23T05:05:47.044Z,102890.94
2017-12-23T05:06:51.593Z,102896.82
2017-12-23T05:07:56.070Z,102893.31
2017-12-23T05:09:00.523Z,102897.16
2017-12-23T05:10:05.356Z,102892.95
2017-12-23T05:11:09.844Z,102898.29
2017-12-23T05:12:14.361Z,102901.83
2017-12-23T05:13:18.774Z,102889.90
2017-12-23T05:14:23.752Z,102887.47
2017-12-23T05:15:29.576Z,102890.14
2017-12-23T05:16:34.284Z,102877.80
2017-12-23T05:17:38.755Z,102883.42
2017-12-23T05:18:43.951Z,102872.89
2017-12-23T05:19:48.356Z,102870.66
2017-12-23T05:20:52.913Z,102869.14
2017-12-23T05:21:57.452Z,102867.00
2017-12-23T05:23:01.888Z,102869.14
2017-12-23T05:24:10.698Z,102862.92
2017-12-23T05:25:15.193Z,102863.53
2017-12-23T05:26:19.689Z,102860.30
2017-12-23T05:27:25.232Z,102860.45
2017-12-23T05:28:29.950Z,102846.60
2017-12-23T05:29:34.412Z,102860.70
2017-12-23T05:30:38.901Z,102867.42
2017-12-23T05:31:43.334Z,102858.53
2017-12-23T05:32:47.790Z,102862.97
2017-12-23T05:33:52.163Z,102864.80
2017-12-23T05:34:56.911Z,102857.37
2017-12-23T05:36:01.295Z,102856.63
2017-12-23T05:37:05.650Z,102861.80
2017-12-23T05:38:10.226Z,102865.30
2017-12-23T05:39:14.628Z,102858.25
2017-12-23T05:40:19.644Z,102854.70
2017-12-23T05:41:25.436Z,102852.54
2017-12-23T05:42:30.023Z,102864.98
2017-12-23T05:43:34.504Z,102865.88
2017-12-23T05:44:38.943Z,102865.67
2017-12-23T05:45:43.683Z,102866.03
2017-12-23T05:46:48.290Z,102864.34
2017-12-23T05:47:53.063Z,102879.80
2017-12-23T05:48:57.641Z,102855.76
2017-12-23T05:50:02.018Z,102857.97
2017-12-23T05:51:06.466Z,102855.86
2017-12-23T05:52:10.915Z,102862.81
2017-12-23T05:53:15.371Z,102861.16
2017-12-23T05:54:20.043Z,102863.95
2017-12-23T05:55:24.480Z,102861.81
2017-12-23T05:56:30.142Z,102858.85
2017-12-23T05:57:34.743Z,102857.72
2017-12-23T05:58:39.232Z,102850.12
2017-12-23T05:59:44.871Z,102854.66
2017-12-23T06:00:50.068Z,102856.78
2017-12-23T06:01:54.799Z,102846.45
2017-12-23T06:02:59.265Z,102851.67
2017-12-23T06:04:03.736Z,102850.31
2017-12-23T06:05:08.248Z,102847.25
2017-12-23T06:06:12.661Z,102840.79
2017-12-23T06:07:17.143Z,102843.95
2017-12-23T06:08:21.984Z,102840.08
2017-12-23T06:09:26.469Z,102844.36
2017-12-23T06:10:30.959Z,102834.66
2017-12-23T06:11:35.484Z,102837.28
2017-12-23T06:12:40.963Z,102839.20
2017-12-23T06:13:45.508Z,102837.52
2017-12-23T06:14:49.923Z,102840.72
2017-12-23T06:15:54.691Z,102826.23
2017-12-23T06:16:59.141Z,102829.73
2017-12-23T06:18:03.704Z,102819.16
2017-12-23T06:19:08.488Z,102816.06
2017-12-23T06:20:12.963Z,102822.36
2017-12-23T06:21:17.407Z,102818.25
2017-12-23T06:22:22.103Z,102818.62
2017-12-23T06:23:27.269Z,102827.47
2017-12-23T06:24:36.939Z,102818.52
2017-12-23T06:25:42.022Z,102824.32
2017-12-23T06:26:46.538Z,102820.38
2017-12-23T06:27:50.955Z,102815.14
2017-12-23T06:28:55.467Z,102825.87
2017-12-23T06:29:59.985Z,102827.31
2017-12-23T06:31:04.998Z,102829.51
2017-12-23T06:32:19.145Z,102809.50
2017-12-23T06:33:24.614Z,102824.00
2017-12-23T06:34:31.434Z,102823.23
2017-12-23T06:35:36.171Z,102827.20
2017-12-23T06:36:40.908Z,102836.30
2017-12-23T06:37:45.515Z,102826.48
2017-12-23T06:38:57.234Z,102835.30
2017-12-23T06:40:09.252Z,102836.72
2017-12-23T06:41:13.731Z,102836.77
2017-12-23T06:42:18.688Z,102837.30
2017-12-23T06:43:23.398Z,102833.45
2017-12-23T06:44:28.052Z,102834.43
2017-12-23T06:45:32.832Z,102821.26
2017-12-23T06:46:37.480Z,102828.73
2017-12-23T06:47:42.991Z,102831.52
2017-12-23T06:48:48.080Z,102830.51
2017-12-23T06:49:52.824Z,102836.53
2017-12-23T06:50:57.366Z,102824.04
2017-12-23T06:52:01.888Z,102809.87
2017-12-23T06:53:06.388Z,102813.08
2017-12-23T06:54:10.928Z,102792.37
2017-12-23T06:55:17.201Z,102817.41
2017-12-23T06:56:26.305Z,102814.28
2017-12-23T06:57:31.036Z,102814.28
2017-12-23T06:58:35.491Z,102807.23
2017-12-23T06:59:40.651Z,102797.05
2017-12-23T07:00:45.359Z,102805.95
2017-12-23T07:01:51.876Z,102806.98
2017-12-23T07:02:56.332Z,102800.69
2017-12-23T07:04:01.021Z,102801.64
2017-12-23T07:05:05.635Z,102798.54
2017-12-23T07:06:10.083Z,102803.18
2017-12-23T07:07:15.692Z,102792.50
2017-12-23T07:08:20.376Z,102789.90
2017-12-23T07:21:03.532Z,102814.62
2017-12-23T07:22:07.979Z,102801.75
2017-12-23T07:23:18.496Z,102807.98
2017-12-23T07:24:23.240Z,102800.73
2017-12-23T07:25:31.337Z,102809.52
2017-12-23T07:26:36.443Z,102817.44
2017-12-23T07:27:42.679Z,102808.97
2017-12-23T07:28:51.785Z,102807.51
2017-12-23T07:29:59.107Z,102794.16
2017-12-23T07:31:03.793Z,102815.36
2017-12-23T07:32:08.615Z,102811.85
2017-12-23T07:33:13.995Z,102808.41
2017-12-23T07:34:20.832Z,102815.91
2017-12-23T07:35:25.515Z,102810.61
2017-12-23T07:36:30.221Z,102821.26
2017-12-23T07:37:35.049Z,102802.66
2017-12-23T07:38:39.650Z,102810.59
2017-12-23T07:39:44.247Z,102810.05
2017-12-23T07:40:49.165Z,102818.52
2017-12-23T07:41:53.698Z,102811.15
2017-12-23T07:42:58.142Z,102813.75
2017-12-23T07:44:02.920Z,102800.20
2017-12-23T07:45:08.759Z,102816.05
2017-12-23T07:46:13.433Z,102823.99
2017-12-23T07:47:18.289Z,102823.55
2017-12-23T07:48:24.228Z,102818.13
2017-12-23T07:49:29.033Z,102817.67
2017-12-23T07:50:33.559Z,102819.12
2017-12-23T07:51:38.061Z,102814.62
2017-12-23T07:52:42.622Z,102806.16
2017-12-23T07:53:47.359Z,102814.95
2017-12-23T07:54:51.750Z,102813.58
2017-12-23T07:55:56.623Z,102810.53
2017-12-23T07:57:01.392Z,102821.17
2017-12-23T07:58:05.792Z,102800.41
2017-12-23T07:59:10.236Z,102807.31
2017-12-23T08:00:18.537Z,102795.68
2017-12-23T08:01:23.777Z,102795.70
2017-12-23T08:02:28.567Z,102810.73
2017-12-23T08:03:33.040Z,102815.13
2017-12-23T08:04:37.572Z,102815.13
2017-12-23T08:05:42.177Z,102817.30
2017-12-23T08:06:47.682Z,102814.71
2017-12-23T08:07:52.240Z,102816.05
2017-12-23T08:08:56.663Z,102818.23
2017-12-23T08:10:01.079Z,102817.14
2017-12-23T08:11:06.309Z,102822.54
2017-12-23T08:12:10.807Z,102816.25
2017-12-23T08:13:15.257Z,102828.58
2017-12-23T08:14:19.817Z,102815.75
2017-12-23T08:15:24.650Z,102827.25
2017-12-23T08:16:29.549Z,102819.23
2017-12-23T08:17:34.084Z,102827.41
2017-12-23T08:18:38.730Z,102817.61
2017-12-23T08:19:43.827Z,102829.55
2017-12-23T08:20:48.596Z,102826.78
2017-12-23T08:21:53.195Z,102832.45
2017-12-23T08:22:57.630Z,102828.91
2017-12-23T08:24:02.246Z,102833.02
2017-12-23T08:25:06.739Z,102838.27
2017-12-23T08:26:11.290Z,102820.50
2017-12-23T08:27:16.270Z,102832.98
2017-12-23T08:28:20.852Z,102822.77
2017-12-23T08:29:32.731Z,102825.89
2017-12-23T08:30:37.422Z,102825.92
2017-12-23T08:31:43.326Z,102823.60
2017-12-23T08:32:49.184Z,102813.04
2017-12-23T08:33:53.747Z,102815.75
2017-12-23T08:34:58.288Z,102816.29
2017-12-23T08:36:02.735Z,102810.06
2017-12-23T08:37:07.300Z,102804.31
2017-12-23T08:38:11.865Z,102828.32
2017-12-23T08:39:18.917Z,102821.78
2017-12-23T08:40:24.068Z,102817.19
2017-12-23T08:41:31.369Z,102822.47
2017-12-23T08:42:36.057Z,102833.17
2017-12-23T08:43:41.705Z,102823.87
2017-12-23T08:44:46.291Z,102815.36
2017-12-23T08:45:51.383Z,102821.60
2017-12-23T08:46:55.867Z,102823.79
2017-12-23T08:48:00.394Z,102820.23
2017-12-23T08:49:04.955Z,102825.92
2017-12-23T08:50:09.439Z,102818.83
2017-12-23T08:51:14.048Z,102815.30
2017-12-23T08:52:18.941Z,102806.41
2017-12-23T08:53:23.597Z,102807.74
2017-12-23T08:54:29.119Z,102808.38
2017-12-23T08:55:34.009Z,102801.00
2017-12-23T08:56:38.927Z,102806.30
2017-12-23T08:57:44.396Z,102805.84
2017-12-23T08:58:49.249Z,102824.77
2017-12-23T08:59:53.792Z,102809.62
2017-12-23T09:00:58.740Z,102817.06
2017-12-23T09:02:05.183Z,102812.10
2017-12-23T09:03:11.758Z,102817.59
2017-12-23T09:04:17.410Z,102826.75
2017-12-23T09:05:22.376Z,102820.45
2017-12-23T09:06:28.225Z,102824.42
2017-12-23T09:07:33.820Z,102827.85
2017-12-23T09:08:38.556Z,102837.95
2017-12-23T09:09:45.555Z,102835.27
2017-12-23T09:10:50.844Z,102830.78
2017-12-23T09:11:55.735Z,102794.95
2017-12-23T09:13:00.425Z,102829.89
2017-12-23T09:14:07.052Z,102828.97
2017-12-23T09:15:14.047Z,102825.38
2017-12-23T09:16:19.610Z,102822.36
2017-12-23T09:17:25.809Z,102828.91
2017-12-23T09:18:31.288Z,102830.20
2017-12-23T09:19:36.765Z,102839.09
2017-12-23T09:20:46.233Z,102838.31
2017-12-23T09:21:55.744Z,102814.48
2017-12-23T09:23:03.689Z,102821.66
2017-12-23T09:24:12.115Z,102817.59
2017-12-23T09:25:20.201Z,102818.16
2017-12-23T09:26:27.869Z,102808.30
2017-12-23T09:27:35.346Z,102816.34
2017-12-23T09:28:45.092Z,102819.06
2017-12-23T09:29:53.832Z,102826.09
2017-12-23T09:31:01.624Z,102821.21
2017-12-23T09:32:09.943Z,102820.79
2017-12-23T09:33:17.520Z,102832.73
2017-12-23T09:34:27.659Z,102838.48
2017-12-23T09:35:35.341Z,102826.36
2017-12-23T09:36:41.306Z,102815.40
2017-12-23T09:37:53.129Z,102832.64
2017-12-23T09:39:00.239Z,102831.39
2017-12-23T09:40:08.533Z,102822.81
2017-12-23T09:41:17.401Z,102820.80
2017-12-23T09:42:27.261Z,102819.93
2017-12-23T09:43:34.829Z,102819.72
2017-12-23T09:44:43.002Z,102824.42
2017-12-23T09:45:53.644Z,102822.46
2017-12-23T09:47:01.447Z,102821.25
2017-12-23T09:48:11.495Z,102832.22
2017-12-23T09:49:19.997Z,102825.20
2017-12-23T09:50:29.911Z,102820.81
2017-12-23T09:51:40.019Z,102820.67
2017-12-23T09:52:48.507Z,102817.36
2017-12-23T09:53:58.604Z,102817.36
2017-12-23T09:55:07.408Z,102808.52
2017-12-23T09:56:17.090Z,102801.34
2017-12-23T09:57:26.522Z,102803.13
2017-12-23T09:58:36.856Z,102806.16
2017-12-23T09:59:46.242Z,102805.68
2017-12-23T10:00:55.179Z,102781.38
2017-12-23T10:02:04.050Z,102807.00
2017-12-23T10:03:11.614Z,102792.39
2017-12-23T10:04:18.417Z,102791.03
2017-12-23T10:05:26.621Z,102779.27
2017-12-23T10:06:34.535Z,102775.30
2017-12-23T10:07:44.249Z,102775.30
2017-12-23T10:08:53.545Z,102790.78
2017-12-23T10:10:01.989Z,102773.13
2017-12-23T10:11:10.994Z,102769.99
2017-12-23T10:12:18.926Z,102773.00
2017-12-23T10:13:28.077Z,102773.56
2017-12-23T10:14:37.784Z,102771.98
2017-12-23T10:15:47.653Z,102758.13
2017-12-23T10:16:57.167Z,102760.62
2017-12-23T10:18:05.982Z,102771.33
2017-12-23T10:19:14.874Z,102768.20
2017-12-23T10:20:25.620Z,102759.27
2017-12-23T10:21:36.259Z,102748.64
2017-12-23T10:22:46.758Z,102751.67
2017-12-23T10:23:57.018Z,102750.31
2017-12-23T10:25:07.798Z,102755.70
2017-12-23T10:26:17.849Z,102761.50
2017-12-23T10:27:27.896Z,102763.79
2017-12-23T10:28:37.738Z,102749.01
2017-12-23T10:29:48.677Z,102762.17
2017-12-23T10:30:59.971Z,102759.00
2017-12-23T10:32:09.294Z,102750.66
2017-12-23T10:33:19.261Z,102752.17
2017-12-23T10:34:28.199Z,102756.18
2017-12-23T10:35:36.904Z,102753.06
2017-12-23T10:36:46.758Z,102755.66
2017-12-23T10:37:55.787Z,102763.93
2017-12-23T10:39:05.485Z,102747.70
2017-12-23T10:40:17.383Z,102755.83
2017-12-23T10:41:28.844Z,102749.61
2017-12-23T10:42:37.659Z,102754.03
2017-12-23T10:43:48.225Z,102750.66
2017-12-23T10:44:56.753Z,102751.52
2017-12-23T10:46:06.561Z,102748.31
2017-12-23T10:47:16.701Z,102749.28
2017-12-23T10:48:28.498Z,102743.54
2017-12-23T10:49:37.468Z,102735.05
2017-12-23T10:50:46.501Z,102731.03
2017-12-23T10:51:58.147Z,102734.59
2017-12-23T10:54:24.859Z,102733.03
2017-12-23T10:55:34.611Z,102733.05
2017-12-23T10:56:43.283Z,102726.14
2017-12-23T10:57:52.372Z,102728.45
2017-12-23T10:59:01.788Z,102716.56
2017-12-23T11:00:25.312Z,102724.89
2017-12-23T11:01:34.499Z,102722.05
2017-12-23T11:02:44.283Z,102722.05
2017-12-23T11:03:55.635Z,102726.58
2017-12-23T11:05:04.198Z,102725.36
2017-12-23T11:06:13.927Z,102726.33
2017-12-23T11:07:24.586Z,102730.22
2017-12-23T11:08:37.693Z,102728.89
2017-12-23T11:09:47.177Z,102728.89
2017-12-23T11:10:56.093Z,102720.09
2017-12-23T11:12:07.661Z,102726.77
2017-12-23T11:13:16.519Z,102726.09
2017-12-23T11:14:25.779Z,102728.31
2017-12-23T11:15:34.683Z,102715.45
2017-12-23T11:16:44.145Z,102720.30
2017-12-23T11:17:53.467Z,102714.85
2017-12-23T11:19:03.454Z,102712.62
2017-12-23T11:20:12.969Z,102724.13
2017-12-23T11:21:22.715Z,102716.66
2017-12-23T11:22:32.755Z,102713.23
2017-12-23T11:23:42.787Z,102700.84
2017-12-23T11:24:52.688Z,102721.66
2017-12-23T11:25:59.871Z,102708.84
2017-12-23T11:27:08.674Z,102712.81
2017-12-23T11:28:18.828Z,102709.61
2017-12-23T11:29:27.902Z,102707.86
2017-12-23T11:30:36.000Z,102704.51
2017-12-23T11:31:43.578Z,102701.31
2017-12-23T11:32:53.914Z,102699.95
2017-12-23T11:34:02.274Z,102690.77
2017-12-23T11:35:11.334Z,102695.11
2017-12-23T11:36:17.308Z,102704.31
2017-12-23T11:37:24.272Z,102694.64
2017-12-23T11:38:30.762Z,102700.76
2017-12-23T11:39:39.804Z,102691.18
2017-12-23T11:40:47.882Z,102687.13
2017-12-23T11:41:52.705Z,102693.33
2017-12-23T11:42:58.495Z,102676.84
2017-12-23T11:44:07.200Z,102685.20
2017-12-23T11:45:19.377Z,102690.16
2017-12-23T11:46:29.776Z,102690.13
2017-12-23T11:47:37.810Z,102684.36
2017-12-23T11:48:46.744Z,102688.44
2017-12-23T11:49:54.759Z,102677.84
2017-12-23T11:51:03.596Z,102676.88
2017-12-23T11:52:11.129Z,102669.40
2017-12-23T11:53:19.888Z,102669.59
2017-12-23T11:54:28.367Z,102667.39
2017-12-23T11:55:37.318Z,102670.51
2017-12-23T11:56:44.549Z,102675.73
2017-12-23T11:57:53.898Z,102654.80
2017-12-23T11:59:04.042Z,102667.56
2017-12-23T12:00:18.290Z,102666.61
2017-12-23T12:01:34.217Z,102652.52
2017-12-23T12:02:43.434Z,102665.33
2017-12-23T12:03:53.345Z,102666.66
2017-12-23T12:05:03.042Z,102666.25
2017-12-23T12:06:11.739Z,102650.33
2017-12-23T12:07:17.230Z,102650.41
2017-12-23T12:08:25.922Z,102644.84
2017-12-23T12:09:33.346Z,102658.18
2017-12-23T12:10:40.808Z,102634.20
2017-12-23T12:11:45.324Z,102634.14
2017-12-23T12:12:51.602Z,102630.65
2017-12-23T12:13:56.436Z,102639.42
2017-12-23T12:15:06.402Z,102629.22
2017-12-23T12:16:32.793Z,102630.22
2017-12-23T12:17:38.403Z,102639.00
2017-12-23T12:18:44.698Z,102639.33
2017-12-23T12:19:50.241Z,102643.41
2017-12-23T12:20:54.905Z,102642.15
2017-12-23T12:21:59.748Z,102647.56
2017-12-23T12:23:05.160Z,102641.84
2017-12-23T12:24:09.804Z,102648.53
2017-12-23T12:25:15.511Z,102641.45
2017-12-23T12:26:20.453Z,102625.81
2017-12-23T12:27:26.189Z,102638.78
2017-12-23T12:28:32.039Z,102634.75
2017-12-23T12:29:37.501Z,102643.58
2017-12-23T12:30:46.965Z,102629.41
2017-12-23T12:31:54.555Z,102633.41
2017-12-23T12:33:01.338Z,102625.41
2017-12-23T12:34:07.323Z,102625.78
2017-12-23T12:35:12.790Z,102626.83
2017-12-23T12:36:23.227Z,102634.80
2017-12-23T12:37:28.982Z,102637.86
2017-12-23T12:38:35.272Z,102640.06
2017-12-23T12:39:40.219Z,102626.77
2017-12-23T12:40:46.357Z,102644.56
2017-12-23T12:41:53.054Z,102627.81
2017-12-23T12:42:57.844Z,102635.85
2017-12-23T12:44:03.034Z,102623.84
2017-12-23T12:45:14.408Z,102626.08
2017-12-23T12:46:19.051Z,102622.97
2017-12-23T12:47:26.610Z,102624.27
2017-12-23T12:48:36.671Z,102620.21
2017-12-23T12:49:48.114Z,102630.38